Time;durP1;ratioP1;P1;durP2;ratioP2;P2;SDS_P1;SDS_P2;PMS_P1;PMS_P2;Temp;Humidity;BMP_temperature;BMP_pressure;BME280_temperature;BME280_humidity;BME280_pressure;Samples;Min_cycle;Max_cycle;Signal;HPM_P1;HPM_P2
2022/05/06 00:01:44;;;;;;;7.90;3.80;;;;;;;;;;5091635;28;20266;-51
2022/05/06 00:04:10;;;;;;;11.13;6.37;;;;;;;;;;5091937;28;20244;-50
2022/05/06 00:06:37;;;;;;;9.40;8.40;;;;;;;;;;5091742;28;20219;-52
2022/05/06 00:09:05;;;;;;;6.17;4.23;;;;;;;;;;5091788;28;20278;-50
2022/05/06 00:11:31;;;;;;;7.20;3.87;;;;;;;;;;5091885;28;20229;-51
2022/05/06 00:13:57;;;;;;;6.47;4.00;;;;;;;;;;5091526;28;20198;-50
2022/05/06 00:16:24;;;;;;;5.17;3.70;;;;;;;;;;5089635;28;20230;-53
2022/05/06 00:18:50;;;;;;;5.20;3.57;;;;;;;;;;5091760;28;20202;-53
2022/05/06 00:21:16;;;;;;;5.57;3.70;;;;;;;;;;5091776;28;20277;-53
2022/05/06 00:23:42;;;;;;;5.90;3.80;;;;;;;;;;5091420;28;20199;-53
2022/05/06 00:26:10;;;;;;;4.63;3.73;;;;;;;;;;5091830;28;20610;-53
2022/05/06 00:28:36;;;;;;;5.10;3.60;;;;;;;;;;5091515;28;20332;-52
2022/05/06 00:31:02;;;;;;;6.67;3.60;;;;;;;;;;5091922;28;20221;-53
2022/05/06 00:33:28;;;;;;;5.90;3.67;;;;;;;;;;5091480;28;20680;-53
2022/05/06 00:35:55;;;;;;;11.40;10.13;;;;;;;;;;5090154;28;20199;-53
2022/05/06 00:38:21;;;;;;;11.17;7.73;;;;;;;;;;5089616;28;20230;-52
2022/05/06 00:40:47;;;;;;;5.53;4.27;;;;;;;;;;5090782;28;20209;-53
2022/05/06 00:43:15;;;;;;;4.23;3.57;;;;;;;;;;5094044;28;20230;-53
2022/05/06 00:45:45;;;;;;;7.47;3.70;;;;;;;;;;5095113;28;20226;-53
2022/05/06 00:48:12;;;;;;;5.87;3.97;;;;;;;;;;5095235;28;20260;-53
2022/05/06 00:50:38;;;;;;;4.17;3.60;;;;;;;;;;5094939;28;20225;-53
2022/05/06 00:53:06;;;;;;;5.37;3.80;;;;;;;;;;5095093;28;20552;-53
2022/05/06 00:55:33;;;;;;;6.97;4.13;;;;;;;;;;5095068;28;20199;-53
2022/05/06 00:57:59;;;;;;;8.70;4.30;;;;;;;;;;5095317;28;20198;-53
2022/05/06 01:00:28;;;;;;;6.20;4.53;;;;;;;;;;5095007;28;20298;-53
2022/05/06 01:02:54;;;;;;;5.30;4.43;;;;;;;;;;5095191;28;20203;-52
2022/05/06 01:05:20;;;;;;;6.53;3.63;;;;;;;;;;5094990;28;20201;-53
2022/05/06 01:07:47;;;;;;;5.03;4.10;;;;;;;;;;5094796;28;20732;-52
2022/05/06 01:10:13;;;;;;;5.37;3.73;;;;;;;;;;5095091;28;20300;-53
2022/05/06 01:12:39;;;;;;;5.60;4.00;;;;;;;;;;5094764;28;20207;-53
2022/05/06 01:15:17;;;;;;;7.20;3.90;;;;;;;;;;5094584;28;20205;-53
2022/05/06 01:17:44;;;;;;;5.23;4.20;;;;;;;;;;5094743;28;20273;-53
2022/05/06 01:20:11;;;;;;;6.93;4.20;;;;;;;;;;5094775;28;20226;-53
2022/05/06 01:22:39;;;;;;;4.83;4.13;;;;;;;;;;5094548;28;20544;-53
2022/05/06 01:25:05;;;;;;;4.63;3.97;;;;;;;;;;5094566;28;20233;-53
2022/05/06 01:27:35;;;;;;;10.17;4.30;;;;;;;;;;5094620;28;20230;-53
2022/05/06 01:30:02;;;;;;;5.73;4.03;;;;;;;;;;5093028;28;20222;-53
2022/05/06 01:32:28;;;;;;;7.43;4.63;;;;;;;;;;5092629;28;20199;-53
2022/05/06 01:34:55;;;;;;;5.50;4.10;;;;;;;;;;5093980;28;20226;-53
2022/05/06 01:37:22;;;;;;;8.00;4.10;;;;;;;;;;5093909;28;20256;-53
2022/05/06 01:39:52;;;;;;;6.60;4.43;;;;;;;;;;5094286;28;20238;-53
2022/05/06 01:42:21;;;;;;;5.70;4.03;;;;;;;;;;5094321;28;20207;-53
2022/05/06 01:44:49;;;;;;;6.03;4.10;;;;;;;;;;5094340;28;20210;-53
2022/05/06 01:47:18;;;;;;;4.70;4.00;;;;;;;;;;5094303;28;20288;-53
2022/05/06 01:49:46;;;;;;;5.00;4.47;;;;;;;;;;5094172;28;20537;-53
2022/05/06 01:52:15;;;;;;;5.37;4.00;;;;;;;;;;5094094;28;20260;-52
2022/05/06 01:54:41;;;;;;;4.53;3.77;;;;;;;;;;5092840;28;20658;-52
2022/05/06 01:57:09;;;;;;;7.40;4.60;;;;;;;;;;5093996;28;20206;-53
2022/05/06 01:59:34;;;;;;;6.23;4.20;;;;;;;;;;5093893;28;20203;-53
2022/05/06 02:02:00;;;;;;;6.17;4.13;;;;;;;;;;5093733;28;20692;-52
2022/05/06 02:07:11;;;;;;;5.10;4.60;;;;;;;;;;5093779;28;20640;-52
2022/05/06 02:09:37;;;;;;;5.10;4.43;;;;;;;;;;5093579;28;20207;-52
2022/05/06 02:12:03;;;;;;;5.30;4.30;;;;;;;;;;5093767;28;20199;-52
2022/05/06 02:14:31;;;;;;;6.63;4.33;;;;;;;;;;5093709;28;20195;-52
2022/05/06 02:16:57;;;;;;;6.77;4.53;;;;;;;;;;5092877;28;20231;-53
2022/05/06 02:19:23;;;;;;;6.20;4.57;;;;;;;;;;5093623;28;20283;-53
2022/05/06 02:21:49;;;;;;;4.83;4.33;;;;;;;;;;5093467;28;20235;-52
2022/05/06 02:24:14;;;;;;;4.53;4.13;;;;;;;;;;5093508;28;20207;-52
2022/05/06 02:26:42;;;;;;;10.23;4.63;;;;;;;;;;5093389;28;20759;-52
2022/05/06 02:29:08;;;;;;;5.40;4.50;;;;;;;;;;5093562;28;20219;-52
2022/05/06 02:34:20;;;;;;;4.87;4.37;;;;;;;;;;5093190;28;20244;-52
2022/05/06 02:36:46;;;;;;;5.00;4.27;;;;;;;;;;5092818;28;20191;-52
2022/05/06 02:39:12;;;;;;;5.07;4.30;;;;;;;;;;5093111;28;20203;-52
2022/05/06 02:41:38;;;;;;;6.40;4.37;;;;;;;;;;5093083;28;20538;-53
2022/05/06 02:44:05;;;;;;;5.20;4.50;;;;;;;;;;5093185;28;20199;-54
2022/05/06 02:46:30;;;;;;;4.63;4.20;;;;;;;;;;5093063;28;20563;-54
2022/05/06 02:48:58;;;;;;;4.60;4.10;;;;;;;;;;5093139;28;20204;-53
2022/05/06 02:51:24;;;;;;;4.53;4.13;;;;;;;;;;5092922;28;20260;-53
2022/05/06 02:53:50;;;;;;;5.63;4.67;;;;;;;;;;5092825;28;20202;-53
2022/05/06 02:56:16;;;;;;;7.23;4.63;;;;;;;;;;5092975;28;20653;-54
2022/05/06 02:58:42;;;;;;;12.27;4.53;;;;;;;;;;5092769;28;20725;-52
2022/05/06 03:01:08;;;;;;;6.00;4.67;;;;;;;;;;5092756;28;20191;-52
2022/05/06 03:03:34;;;;;;;10.60;4.40;;;;;;;;;;5092690;28;20207;-53
2022/05/06 03:06:01;;;;;;;5.77;4.43;;;;;;;;;;5092131;28;20195;-52
2022/05/06 03:08:27;;;;;;;5.30;4.40;;;;;;;;;;5092546;28;20246;-52
2022/05/06 03:10:53;;;;;;;5.77;4.50;;;;;;;;;;5092586;28;20658;-51
2022/05/06 03:13:19;;;;;;;5.83;5.13;;;;;;;;;;5092549;28;20210;-51
2022/05/06 03:15:45;;;;;;;5.63;4.47;;;;;;;;;;5092312;28;20262;-52
2022/05/06 03:18:11;;;;;;;7.87;4.90;;;;;;;;;;5092630;28;20190;-52
2022/05/06 03:20:38;;;;;;;5.00;4.50;;;;;;;;;;5092405;28;20206;-52
2022/05/06 03:23:05;;;;;;;5.43;4.93;;;;;;;;;;5092503;28;20191;-52
2022/05/06 03:25:31;;;;;;;5.30;4.80;;;;;;;;;;5092293;28;20234;-52
2022/05/06 03:28:07;;;;;;;5.23;4.60;;;;;;;;;;5092186;28;20230;-52
2022/05/06 03:30:39;;;;;;;5.20;4.70;;;;;;;;;;5092323;28;20269;-52
2022/05/06 03:33:05;;;;;;;6.33;4.80;;;;;;;;;;5092278;28;20214;-52
2022/05/06 03:35:33;;;;;;;5.83;4.93;;;;;;;;;;5092186;28;20603;-52
2022/05/06 03:37:59;;;;;;;6.97;4.87;;;;;;;;;;5092297;28;20198;-52
2022/05/06 03:40:26;;;;;;;5.77;4.50;;;;;;;;;;5092349;28;20194;-52
2022/05/06 03:42:52;;;;;;;5.20;4.73;;;;;;;;;;5092080;28;20219;-52
2022/05/06 03:45:18;;;;;;;4.90;4.40;;;;;;;;;;5092235;28;20278;-52
2022/05/06 03:47:44;;;;;;;6.87;5.00;;;;;;;;;;5092150;28;20233;-53
2022/05/06 03:52:55;;;;;;;5.10;4.53;;;;;;;;;;5091970;28;20189;-54
2022/05/06 03:55:21;;;;;;;5.70;4.70;;;;;;;;;;5092114;28;20223;-53
2022/05/06 03:57:49;;;;;;;6.53;4.90;;;;;;;;;;5091895;28;20194;-54
2022/05/06 04:00:16;;;;;;;6.87;4.90;;;;;;;;;;5091966;28;20684;-54
2022/05/06 04:02:42;;;;;;;4.83;4.27;;;;;;;;;;5091920;28;20260;-53
2022/05/06 04:05:08;;;;;;;7.40;4.70;;;;;;;;;;5091869;28;20225;-53
2022/05/06 04:07:34;;;;;;;5.00;4.53;;;;;;;;;;5091776;28;20219;-54
2022/05/06 04:10:00;;;;;;;5.87;4.43;;;;;;;;;;5092039;28;20199;-53
2022/05/06 04:12:26;;;;;;;6.33;5.00;;;;;;;;;;5090934;28;20194;-53
2022/05/06 04:14:54;;;;;;;7.87;5.10;;;;;;;;;;5091001;28;20281;-53
2022/05/06 04:17:23;;;;;;;5.00;4.30;;;;;;;;;;5092953;28;20724;-52
2022/05/06 04:25:19;;;;;;;5.20;4.70;;;;;;;;;;5095797;28;20214;-53
2022/05/06 04:27:45;;;;;;;7.33;5.43;;;;;;;;;;5095605;28;20218;-52
2022/05/06 04:30:13;;;;;;;7.23;4.93;;;;;;;;;;5095565;28;20195;-53
2022/05/06 04:32:39;;;;;;;6.10;5.20;;;;;;;;;;5095421;28;20629;-53
2022/05/06 04:35:06;;;;;;;9.50;5.33;;;;;;;;;;5095321;28;20194;-52
2022/05/06 04:37:32;;;;;;;10.07;5.47;;;;;;;;;;5095562;28;20723;-53
2022/05/06 04:39:58;;;;;;;10.67;5.60;;;;;;;;;;5095819;28;20195;-52
2022/05/06 04:42:24;;;;;;;8.23;5.23;;;;;;;;;;5095561;28;20760;-53
2022/05/06 04:44:50;;;;;;;6.03;5.40;;;;;;;;;;5095440;28;20613;-53
2022/05/06 04:47:17;;;;;;;5.97;5.43;;;;;;;;;;5095444;28;20223;-52
2022/05/06 04:49:43;;;;;;;7.70;5.77;;;;;;;;;;5095422;28;20703;-52
2022/05/06 04:52:09;;;;;;;8.30;5.57;;;;;;;;;;5095382;28;20195;-53
2022/05/06 04:54:35;;;;;;;8.10;6.27;;;;;;;;;;5095346;28;20198;-52
2022/05/06 04:57:01;;;;;;;8.57;6.30;;;;;;;;;;5095223;28;20198;-52
2022/05/06 04:59:27;;;;;;;8.27;6.17;;;;;;;;;;5095224;28;20722;-53
2022/05/06 05:01:54;;;;;;;8.97;6.43;;;;;;;;;;5095448;28;20195;-53
2022/05/06 05:04:27;;;;;;;9.70;6.27;;;;;;;;;;5095008;28;20191;-53
2022/05/06 05:06:54;;;;;;;7.43;6.13;;;;;;;;;;5094868;28;20294;-53
2022/05/06 05:09:20;;;;;;;7.70;6.53;;;;;;;;;;5095029;28;20211;-53
2022/05/06 05:11:47;;;;;;;8.40;6.03;;;;;;;;;;5094679;28;20264;-53
2022/05/06 05:14:13;;;;;;;6.87;5.83;;;;;;;;;;5094828;28;20570;-53
2022/05/06 05:16:39;;;;;;;8.40;6.17;;;;;;;;;;5094085;28;20720;-53
2022/05/06 05:19:05;;;;;;;8.83;6.80;;;;;;;;;;5094646;28;20198;-53
2022/05/06 05:21:32;;;;;;;7.07;6.10;;;;;;;;;;5094358;28;20306;-53
2022/05/06 05:23:58;;;;;;;8.10;6.17;;;;;;;;;;5094813;28;20558;-54
2022/05/06 05:26:25;;;;;;;7.77;6.07;;;;;;;;;;5094538;28;20719;-53
2022/05/06 05:28:51;;;;;;;9.90;6.60;;;;;;;;;;5094157;28;20295;-53
2022/05/06 05:31:17;;;;;;;11.07;6.20;;;;;;;;;;5094414;28;20661;-53
2022/05/06 05:33:43;;;;;;;8.37;6.03;;;;;;;;;;5094448;28;20305;-54
2022/05/06 05:36:09;;;;;;;8.97;6.07;;;;;;;;;;5094412;28;20210;-53
2022/05/06 05:38:38;;;;;;;8.80;6.13;;;;;;;;;;5094332;28;20210;-54
2022/05/06 05:41:04;;;;;;;11.03;7.07;;;;;;;;;;5094145;28;20690;-54
2022/05/06 05:48:59;;;;;;;9.30;6.00;;;;;;;;;;5094222;28;20230;-54
2022/05/06 05:51:25;;;;;;;9.00;7.23;;;;;;;;;;5094022;28;20564;-54
2022/05/06 05:53:53;;;;;;;9.00;6.83;;;;;;;;;;5094272;28;20199;-54
2022/05/06 05:56:19;;;;;;;10.60;7.10;;;;;;;;;;5094116;28;20214;-52
2022/05/06 05:58:45;;;;;;;11.40;6.87;;;;;;;;;;5094006;28;20199;-52
2022/05/06 06:01:11;;;;;;;11.50;7.27;;;;;;;;;;5093980;28;20668;-54
2022/05/06 06:03:37;;;;;;;8.30;6.57;;;;;;;;;;5093756;28;20248;-54
2022/05/06 06:06:03;;;;;;;17.13;7.67;;;;;;;;;;5093808;28;20198;-54
2022/05/06 06:08:29;;;;;;;9.70;6.97;;;;;;;;;;5093981;28;20226;-54
2022/05/06 06:10:56;;;;;;;12.83;7.87;;;;;;;;;;5093877;28;20564;-54
2022/05/06 06:13:22;;;;;;;9.00;7.80;;;;;;;;;;5093838;28;20206;-53
2022/05/06 06:15:49;;;;;;;13.97;7.43;;;;;;;;;;5093112;28;20242;-53
2022/05/06 06:18:15;;;;;;;12.10;6.93;;;;;;;;;;5093595;28;20276;-54
2022/05/06 06:20:41;;;;;;;10.17;6.87;;;;;;;;;;5093049;28;20195;-54
2022/05/06 06:23:07;;;;;;;7.07;6.30;;;;;;;;;;5093307;28;20233;-53
2022/05/06 06:25:34;;;;;;;10.50;6.53;;;;;;;;;;5092904;28;20704;-54
2022/05/06 06:28:01;;;;;;;9.77;6.40;;;;;;;;;;5092974;28;20574;-54
2022/05/06 06:30:28;;;;;;;10.87;6.80;;;;;;;;;;5093126;28;20206;-54
2022/05/06 06:32:54;;;;;;;7.17;6.50;;;;;;;;;;5092936;28;20209;-54
2022/05/06 06:35:21;;;;;;;10.13;6.77;;;;;;;;;;5092894;28;20203;-54
2022/05/06 06:37:47;;;;;;;7.73;6.73;;;;;;;;;;5092988;28;20576;-54
2022/05/06 06:40:13;;;;;;;8.83;6.73;;;;;;;;;;5092400;28;20244;-54
2022/05/06 06:42:41;;;;;;;8.57;6.97;;;;;;;;;;5092750;28;20574;-54
2022/05/06 06:45:09;;;;;;;8.90;6.83;;;;;;;;;;5092860;28;20615;-54
2022/05/06 06:47:35;;;;;;;7.83;7.00;;;;;;;;;;5092709;28;20306;-53
2022/05/06 06:50:01;;;;;;;11.37;7.00;;;;;;;;;;5092970;28;20639;-53
2022/05/06 06:52:27;;;;;;;7.07;6.37;;;;;;;;;;5092722;28;20195;-53
2022/05/06 06:54:53;;;;;;;7.40;6.70;;;;;;;;;;5092699;28;20211;-53
2022/05/06 06:57:19;;;;;;;8.60;6.20;;;;;;;;;;5092752;28;20204;-53
2022/05/06 06:59:45;;;;;;;9.07;6.90;;;;;;;;;;5092697;28;20710;-53
2022/05/06 07:02:12;;;;;;;8.77;6.90;;;;;;;;;;5092579;28;20692;-53
2022/05/06 07:04:38;;;;;;;8.03;6.73;;;;;;;;;;5092230;28;20574;-53
2022/05/06 07:12:39;;;;;;;7.47;6.77;;;;;;;;;;5091848;28;20242;-53
2022/05/06 07:15:05;;;;;;;11.90;6.23;;;;;;;;;;5091881;28;20199;-53
2022/05/06 07:17:32;;;;;;;10.77;6.67;;;;;;;;;;5092331;28;20561;-59
2022/05/06 07:19:58;;;;;;;10.80;5.63;;;;;;;;;;5092292;28;20207;-58
2022/05/06 07:22:24;;;;;;;7.87;5.00;;;;;;;;;;5092155;28;20540;-54
2022/05/06 07:24:50;;;;;;;4.90;4.50;;;;;;;;;;5092273;28;20283;-55
2022/05/06 07:27:18;;;;;;;5.63;5.03;;;;;;;;;;5092337;28;20316;-56
2022/05/06 07:29:43;;;;;;;7.70;5.20;;;;;;;;;;5092296;28;20201;-55
2022/05/06 07:32:10;;;;;;;5.20;4.70;;;;;;;;;;5092236;28;20196;-56
2022/05/06 07:34:37;;;;;;;6.63;5.07;;;;;;;;;;5091856;28;20778;-57
2022/05/06 07:37:03;;;;;;;5.47;4.80;;;;;;;;;;5092151;28;20298;-57
2022/05/06 07:39:29;;;;;;;5.63;4.13;;;;;;;;;;5092180;28;20252;-56
2022/05/06 07:41:56;;;;;;;5.23;4.40;;;;;;;;;;5092092;28;20201;-57
2022/05/06 07:44:22;;;;;;;4.50;4.00;;;;;;;;;;5092155;28;20202;-57
2022/05/06 07:46:48;;;;;;;6.10;4.33;;;;;;;;;;5091901;28;20718;-57
2022/05/06 07:49:14;;;;;;;6.47;4.80;;;;;;;;;;5092014;28;20209;-56
2022/05/06 07:51:43;;;;;;;5.47;4.97;;;;;;;;;;5091553;28;20203;-57
2022/05/06 07:54:09;;;;;;;5.67;4.67;;;;;;;;;;5092035;28;20209;-57
2022/05/06 07:56:35;;;;;;;6.03;3.87;;;;;;;;;;5091930;28;20206;-57
2022/05/06 07:59:01;;;;;;;4.67;4.17;;;;;;;;;;5092110;28;20197;-57
2022/05/06 08:06:58;;;;;;;4.77;3.93;;;;;;;;;;5090218;28;20197;-55
2022/05/06 08:09:24;;;;;;;5.03;3.60;;;;;;;;;;5091297;28;20209;-55
2022/05/06 08:11:50;;;;;;;6.17;4.00;;;;;;;;;;5091833;28;20206;-54
2022/05/06 08:14:16;;;;;;;4.30;3.53;;;;;;;;;;5091986;28;20282;-56
2022/05/06 08:16:43;;;;;;;5.53;3.57;;;;;;;;;;5091234;28;20222;-56
2022/05/06 08:19:09;;;;;;;4.63;3.20;;;;;;;;;;5092215;28;20191;-56
2022/05/06 08:21:35;;;;;;;8.53;3.40;;;;;;;;;;5091726;28;20535;-56
2022/05/06 08:24:03;;;;;;;4.53;3.33;;;;;;;;;;5092089;28;20218;-56
2022/05/06 08:26:29;;;;;;;5.07;3.17;;;;;;;;;;5091812;28;20289;-56
2022/05/06 08:28:55;;;;;;;4.57;3.20;;;;;;;;;;5091613;28;20882;-56
2022/05/06 08:31:21;;;;;;;4.00;3.00;;;;;;;;;;5091724;28;20282;-56
2022/05/06 08:33:47;;;;;;;6.53;3.13;;;;;;;;;;5089681;28;20286;-56
2022/05/06 08:36:14;;;;;;;4.43;3.30;;;;;;;;;;5089649;28;20214;-55
2022/05/06 08:38:40;;;;;;;4.60;3.03;;;;;;;;;;5091087;28;20637;-54
2022/05/06 08:41:10;;;;;;;6.00;3.13;;;;;;;;;;5090899;28;20195;-54
2022/05/06 08:43:37;;;;;;;4.40;2.93;;;;;;;;;;5091478;28;20669;-55
2022/05/06 08:51:34;;;;;;;5.10;3.63;;;;;;;;;;5091239;28;20202;-55
2022/05/06 08:54:01;;;;;;;5.63;3.57;;;;;;;;;;5090000;28;20290;-55
2022/05/06 08:56:29;;;;;;;5.27;3.20;;;;;;;;;;5089614;28;20203;-55
2022/05/06 08:58:55;;;;;;;6.17;3.40;;;;;;;;;;5090669;28;20252;-54
2022/05/06 09:01:22;;;;;;;4.33;3.23;;;;;;;;;;5090563;28;20208;-55
2022/05/06 09:03:48;;;;;;;11.93;4.53;;;;;;;;;;5092413;28;20203;-55
2022/05/06 09:06:20;;;;;;;5.17;3.67;;;;;;;;;;5094669;28;20211;-55
2022/05/06 09:08:47;;;;;;;4.53;2.97;;;;;;;;;;5094617;28;20226;-55
2022/05/06 09:11:14;;;;;;;5.20;3.33;;;;;;;;;;5094628;28;20187;-55
2022/05/06 09:13:51;;;;;;;6.63;3.40;;;;;;;;;;5094104;28;20446;-54
2022/05/06 09:19:10;;;;;;;6.97;3.50;;;;;;;;;;5094199;28;20319;-55
2022/05/06 09:21:36;;;;;;;4.40;2.70;;;;;;;;;;5094138;28;20195;-55
2022/05/06 09:24:15;;;;;;;9.90;3.03;;;;;;;;;;5093889;28;20234;-55
2022/05/06 09:26:54;;;;;;;3.93;3.20;;;;;;;;;;5094120;28;20241;-55
2022/05/06 09:29:27;;;;;;;5.30;3.40;;;;;;;;;;5094069;28;20221;-56
2022/05/06 09:31:54;;;;;;;4.70;3.77;;;;;;;;;;5094111;28;20220;-56
2022/05/06 09:34:26;;;;;;;6.40;5.07;;;;;;;;;;5094324;28;20311;-56
2022/05/06 09:36:55;;;;;;;6.07;3.70;;;;;;;;;;5094054;28;20190;-55
2022/05/06 09:39:22;;;;;;;6.03;4.67;;;;;;;;;;5094077;28;20625;-55
2022/05/06 09:41:48;;;;;;;6.43;4.10;;;;;;;;;;5093898;28;20194;-55
2022/05/06 09:44:14;;;;;;;7.40;4.47;;;;;;;;;;5093999;28;20410;-55
2022/05/06 09:46:41;;;;;;;4.87;3.73;;;;;;;;;;5093860;28;20217;-54
2022/05/06 09:49:07;;;;;;;4.80;3.73;;;;;;;;;;5094050;28;20225;-57
2022/05/06 09:51:35;;;;;;;7.03;3.43;;;;;;;;;;5093921;28;20510;-56
2022/05/06 09:54:01;;;;;;;5.80;3.80;;;;;;;;;;5094065;28;20213;-54
2022/05/06 09:56:28;;;;;;;5.03;4.00;;;;;;;;;;5094007;28;20201;-54
2022/05/06 09:58:54;;;;;;;4.60;4.10;;;;;;;;;;5093751;28;20201;-56
2022/05/06 10:01:21;;;;;;;4.53;3.80;;;;;;;;;;5093985;28;20553;-56
2022/05/06 10:03:50;;;;;;;6.63;4.20;;;;;;;;;;5092735;28;20211;-55
2022/05/06 10:06:16;;;;;;;6.10;4.63;;;;;;;;;;5093387;28;20694;-55
2022/05/06 10:08:43;;;;;;;5.93;4.20;;;;;;;;;;5093582;28;20222;-55
2022/05/06 10:11:12;;;;;;;5.60;4.20;;;;;;;;;;5093734;28;20248;-55
2022/05/06 10:13:43;;;;;;;8.07;4.20;;;;;;;;;;5093586;28;20200;-56
2022/05/06 10:16:09;;;;;;;5.47;3.90;;;;;;;;;;5092543;28;20244;-56
2022/05/06 10:18:35;;;;;;;5.47;4.00;;;;;;;;;;5093564;28;20209;-55
2022/05/06 10:21:03;;;;;;;7.73;4.50;;;;;;;;;;5093373;28;20284;-55
2022/05/06 10:23:53;;;;;;;6.87;5.00;;;;;;;;;;5093523;28;20205;-55
2022/05/06 10:26:39;;;;;;;5.40;4.70;;;;;;;;;;5077858;28;20221;-55
2022/05/06 10:34:52;;;;;;;5.90;4.70;;;;;;;;;;5093111;28;20726;-55
2022/05/06 10:37:19;;;;;;;7.60;4.53;;;;;;;;;;5092856;28;20202;-55
2022/05/06 10:39:45;;;;;;;5.47;4.33;;;;;;;;;;5093057;28;20233;-55
2022/05/06 10:42:12;;;;;;;5.30;4.80;;;;;;;;;;5093080;28;20198;-55
2022/05/06 10:44:39;;;;;;;4.80;4.40;;;;;;;;;;5092955;28;20195;-55
2022/05/06 10:47:20;;;;;;;5.37;4.40;;;;;;;;;;5092970;28;20654;-56
2022/05/06 10:49:46;;;;;;;7.23;4.67;;;;;;;;;;5092638;28;20614;-55
2022/05/06 10:52:33;;;;;;;5.40;4.90;;;;;;;;;;5091656;28;20658;-54
2022/05/06 10:55:00;;;;;;;7.03;4.20;;;;;;;;;;5092669;28;20195;-55
2022/05/06 10:57:27;;;;;;;6.77;4.70;;;;;;;;;;5092853;28;20202;-56
2022/05/06 10:59:55;;;;;;;7.90;4.80;;;;;;;;;;5092344;28;20204;-56
2022/05/06 11:02:22;;;;;;;5.67;4.50;;;;;;;;;;5092142;28;20577;-56
2022/05/06 11:04:50;;;;;;;8.23;4.90;;;;;;;;;;5092746;28;20244;-56
2022/05/06 11:07:17;;;;;;;8.00;4.83;;;;;;;;;;5092854;28;20194;-56
2022/05/06 11:09:43;;;;;;;7.77;4.73;;;;;;;;;;5092482;28;20576;-54
2022/05/06 11:12:10;;;;;;;5.67;4.77;;;;;;;;;;5092785;28;20221;-56
2022/05/06 11:14:37;;;;;;;6.93;4.43;;;;;;;;;;5092766;28;20208;-57
2022/05/06 11:17:15;;;;;;;5.73;4.20;;;;;;;;;;5092579;28;20670;-56
2022/05/06 11:19:41;;;;;;;7.00;4.97;;;;;;;;;;5092392;28;20200;-56
2022/05/06 11:22:07;;;;;;;5.67;4.63;;;;;;;;;;5092571;28;20202;-57
2022/05/06 11:24:33;;;;;;;6.33;4.40;;;;;;;;;;5092497;28;20679;-56
2022/05/06 11:27:12;;;;;;;4.73;3.70;;;;;;;;;;5092145;28;20255;-55
2022/05/06 11:29:46;;;;;;;6.23;4.37;;;;;;;;;;5092399;28;20199;-55
2022/05/06 11:32:12;;;;;;;6.37;4.33;;;;;;;;;;5092536;28;20197;-58
2022/05/06 11:34:39;;;;;;;5.50;3.87;;;;;;;;;;5092311;28;20250;-56
2022/05/06 11:37:06;;;;;;;8.47;4.27;;;;;;;;;;5092483;28;20201;-56
2022/05/06 11:39:32;;;;;;;9.53;6.70;;;;;;;;;;5092242;28;20209;-56
2022/05/06 11:42:17;;;;;;;5.33;4.10;;;;;;;;;;5092231;28;20193;-56
2022/05/06 11:47:29;;;;;;;6.10;3.50;;;;;;;;;;5088210;28;20195;-55
2022/05/06 11:49:55;;;;;;;7.30;3.33;;;;;;;;;;5091050;28;20208;-55
2022/05/06 11:52:21;;;;;;;3.40;3.03;;;;;;;;;;5090957;28;20668;-55
2022/05/06 11:54:48;;;;;;;5.60;3.40;;;;;;;;;;5091812;28;20673;-57
2022/05/06 11:57:14;;;;;;;4.73;2.83;;;;;;;;;;5092275;28;20683;-56
2022/05/06 11:59:40;;;;;;;4.67;3.23;;;;;;;;;;5092211;28;20197;-55
2022/05/06 12:02:09;;;;;;;4.37;3.50;;;;;;;;;;5092360;28;20247;-56
2022/05/06 12:04:35;;;;;;;4.73;3.00;;;;;;;;;;5091889;28;20617;-56
2022/05/06 12:07:01;;;;;;;4.43;2.97;;;;;;;;;;5091758;28;20531;-56
2022/05/06 12:09:28;;;;;;;4.40;2.83;;;;;;;;;;5091999;28;20578;-56
2022/05/06 12:12:07;;;;;;;4.17;2.40;;;;;;;;;;5091921;28;20290;-56
2022/05/06 12:14:34;;;;;;;3.77;2.50;;;;;;;;;;5092038;28;20215;-56
2022/05/06 12:17:05;;;;;;;4.93;3.80;;;;;;;;;;5091407;28;20291;-56
2022/05/06 12:19:36;;;;;;;3.20;2.60;;;;;;;;;;5090525;28;20210;-56
2022/05/06 12:22:03;;;;;;;3.50;2.50;;;;;;;;;;5091746;28;20283;-56
2022/05/06 12:24:37;;;;;;;4.53;3.27;;;;;;;;;;5090137;28;20220;-56
2022/05/06 12:27:04;;;;;;;7.37;3.53;;;;;;;;;;5091750;28;20244;-56
2022/05/06 12:29:36;;;;;;;3.90;3.20;;;;;;;;;;5091644;28;20760;-57
2022/05/06 12:32:03;;;;;;;4.20;3.33;;;;;;;;;;5091850;28;20203;-56
2022/05/06 12:34:30;;;;;;;4.07;3.50;;;;;;;;;;5091552;28;20730;-56
2022/05/06 12:37:09;;;;;;;8.27;2.80;;;;;;;;;;5091504;28;20205;-56
2022/05/06 12:39:39;;;;;;;7.00;3.37;;;;;;;;;;5094789;28;20710;-56
2022/05/06 12:42:12;;;;;;;4.73;2.90;;;;;;;;;;5095192;28;20212;-56
2022/05/06 12:44:38;;;;;;;7.50;2.93;;;;;;;;;;5095340;28;20282;-56
2022/05/06 12:47:12;;;;;;;3.43;3.13;;;;;;;;;;5095123;28;20225;-56
2022/05/06 12:49:41;;;;;;;3.47;2.90;;;;;;;;;;5095064;28;20219;-56
2022/05/06 12:52:09;;;;;;;9.97;3.90;;;;;;;;;;5093683;28;20712;-56
2022/05/06 12:54:35;;;;;;;3.97;2.87;;;;;;;;;;5094801;28;20216;-55
2022/05/06 12:57:02;;;;;;;5.53;3.40;;;;;;;;;;5094828;28;20193;-56
2022/05/06 12:59:28;;;;;;;8.03;2.90;;;;;;;;;;5095022;28;20521;-57
2022/05/06 13:01:54;;;;;;;5.43;3.97;;;;;;;;;;5095052;28;20207;-56
2022/05/06 13:04:20;;;;;;;6.03;3.30;;;;;;;;;;5094930;28;20285;-56
2022/05/06 13:06:46;;;;;;;3.83;3.10;;;;;;;;;;5095008;28;20197;-56
2022/05/06 13:09:14;;;;;;;12.37;3.80;;;;;;;;;;5094810;28;20587;-56
2022/05/06 13:11:40;;;;;;;4.90;3.30;;;;;;;;;;5094760;28;20280;-55
2022/05/06 13:14:07;;;;;;;5.10;3.47;;;;;;;;;;5095009;28;20285;-56
2022/05/06 13:16:35;;;;;;;5.47;3.43;;;;;;;;;;5094243;28;20263;-55
2022/05/06 13:19:01;;;;;;;4.97;3.43;;;;;;;;;;5094651;28;20669;-55
2022/05/06 13:21:27;;;;;;;5.20;3.33;;;;;;;;;;5094751;28;20202;-56
2022/05/06 13:23:53;;;;;;;6.07;3.20;;;;;;;;;;5094570;28;20244;-56
2022/05/06 13:26:20;;;;;;;3.90;3.13;;;;;;;;;;5094568;28;20289;-56
2022/05/06 13:28:46;;;;;;;4.97;3.20;;;;;;;;;;5094557;28;20226;-56
2022/05/06 13:31:13;;;;;;;4.33;3.20;;;;;;;;;;5092542;28;20614;-56
2022/05/06 13:33:40;;;;;;;5.90;3.63;;;;;;;;;;5089120;28;20699;-56
2022/05/06 13:36:06;;;;;;;9.97;4.40;;;;;;;;;;5093858;28;20660;-56
2022/05/06 13:38:32;;;;;;;6.20;4.50;;;;;;;;;;5094423;28;20205;-56
2022/05/06 13:40:58;;;;;;;5.23;4.70;;;;;;;;;;5094079;28;20198;-56
2022/05/06 13:43:25;;;;;;;8.37;4.47;;;;;;;;;;5094209;28;20764;-56
2022/05/06 13:45:51;;;;;;;7.30;4.97;;;;;;;;;;5093797;28;20248;-55
2022/05/06 13:48:17;;;;;;;4.50;4.00;;;;;;;;;;5094117;28;20626;-55
2022/05/06 13:50:43;;;;;;;7.93;4.20;;;;;;;;;;5091983;28;20229;-55
2022/05/06 13:53:09;;;;;;;5.60;3.80;;;;;;;;;;5093988;28;20198;-55
2022/05/06 14:01:08;;;;;;;5.40;4.13;;;;;;;;;;5093881;28;20189;-56
2022/05/06 14:03:34;;;;;;;7.67;4.00;;;;;;;;;;5093933;28;20236;-56
2022/05/06 14:06:01;;;;;;;6.63;3.63;;;;;;;;;;5093709;28;20218;-56
2022/05/06 14:08:27;;;;;;;4.63;3.70;;;;;;;;;;5093869;28;20328;-56
2022/05/06 14:10:54;;;;;;;6.23;4.43;;;;;;;;;;5093057;28;20241;-56
2022/05/06 14:13:20;;;;;;;6.50;5.37;;;;;;;;;;5093849;28;20206;-56
2022/05/06 14:15:47;;;;;;;5.57;3.77;;;;;;;;;;5092495;28;20231;-56
2022/05/06 14:18:14;;;;;;;5.87;4.20;;;;;;;;;;5093340;28;20191;-56
2022/05/06 14:20:40;;;;;;;8.47;4.53;;;;;;;;;;5093343;28;20204;-56
2022/05/06 14:23:06;;;;;;;4.63;4.13;;;;;;;;;;5093685;28;20212;-56
2022/05/06 14:25:32;;;;;;;7.57;4.40;;;;;;;;;;5093357;28;20214;-56
2022/05/06 14:27:58;;;;;;;6.97;4.00;;;;;;;;;;5093180;28;20558;-55
2022/05/06 14:30:24;;;;;;;6.27;3.63;;;;;;;;;;5093497;28;20199;-56
2022/05/06 14:32:50;;;;;;;7.13;4.07;;;;;;;;;;5093260;28;20270;-55
2022/05/06 14:35:19;;;;;;;5.47;3.67;;;;;;;;;;5093372;28;20636;-56
2022/05/06 14:37:45;;;;;;;5.30;3.77;;;;;;;;;;5093103;28;20281;-56
2022/05/06 14:40:11;;;;;;;6.43;3.60;;;;;;;;;;5093089;28;20263;-56
2022/05/06 14:42:37;;;;;;;4.87;3.93;;;;;;;;;;5093000;28;20199;-55
2022/05/06 14:45:04;;;;;;;6.03;3.70;;;;;;;;;;5093075;28;20563;-55
2022/05/06 14:47:30;;;;;;;6.07;3.33;;;;;;;;;;5093012;28;20206;-56
2022/05/06 14:49:56;;;;;;;4.67;4.03;;;;;;;;;;5092898;28;20257;-56
2022/05/06 14:52:24;;;;;;;5.93;2.97;;;;;;;;;;5092743;28;20205;-54
2022/05/06 14:54:51;;;;;;;4.10;3.70;;;;;;;;;;5092806;28;20198;-55
2022/05/06 14:57:17;;;;;;;4.43;3.50;;;;;;;;;;5092665;28;20207;-55
2022/05/06 14:59:43;;;;;;;4.27;3.40;;;;;;;;;;5092853;28;20264;-56
2022/05/06 15:02:12;;;;;;;5.37;3.03;;;;;;;;;;5092311;28;20657;-56
2022/05/06 15:04:39;;;;;;;4.50;3.50;;;;;;;;;;5092352;28;20653;-54
2022/05/06 15:07:05;;;;;;;5.67;2.90;;;;;;;;;;5092350;28;20198;-56
2022/05/06 15:09:32;;;;;;;4.23;2.93;;;;;;;;;;5092716;28;20275;-55
2022/05/06 15:11:58;;;;;;;4.53;3.43;;;;;;;;;;5092431;28;20206;-56
2022/05/06 15:14:31;;;;;;;3.40;2.87;;;;;;;;;;5091231;28;20576;-56
2022/05/06 15:16:58;;;;;;;4.07;2.70;;;;;;;;;;5092101;28;20324;-55
2022/05/06 15:19:24;;;;;;;6.93;2.87;;;;;;;;;;5092335;28;20197;-56
2022/05/06 15:21:51;;;;;;;9.00;3.50;;;;;;;;;;5092239;28;20218;-55
2022/05/06 15:24:19;;;;;;;7.27;2.70;;;;;;;;;;5092355;28;20221;-55
2022/05/06 15:26:46;;;;;;;4.20;3.10;;;;;;;;;;5091203;28;20229;-56
2022/05/06 15:29:12;;;;;;;4.13;3.03;;;;;;;;;;5092362;28;20237;-56
2022/05/06 15:31:38;;;;;;;7.27;3.17;;;;;;;;;;5092328;28;20203;-57
2022/05/06 15:34:04;;;;;;;5.57;3.40;;;;;;;;;;5092084;28;20212;-55
2022/05/06 15:36:30;;;;;;;4.73;3.23;;;;;;;;;;5092444;28;20200;-57